Holland, Minnesota
Current Conditions -  °F | °C
As of 12:34 AM on Saturday 25 Oct 2014 (Local Time) from KPQN Reporting Station
Clear Clear  
Wind Chill: 14°   Ceiling: Unl
Heat Index: 14°   Visibility: 10mi
Dew Point:   Wind: 3mph
Humidity: 51%   Direction: 360°N
Pressure: 30.01"   Gusts: NA
Location:  44.09°N, 96.19°W
Report Text: KPQN 250534Z AUTO 36003KT 10SM CLR 14/04 A3001 RMK AO2
Loading
Personal Weather Stations






























Interactive Weather Map
Tropical Storm Tracking
New forecast layout! Learn more

10-Day Weather Forecast

Advertisements
Track Severe Weather on mobile